Time;durP1;ratioP1;P1;durP2;ratioP2;P2;SDS_P1;SDS_P2;PMS_P1;PMS_P2;Temp;Humidity;BMP_temperature;BMP_pressure;BME280_temperature;BME280_humidity;BME280_pressure;Samples;Min_cycle;Max_cycle;Signal;HPM_P1;HPM_P2
2023/12/14 00:00:29;;;;;;;6.38;3.35;;;5.30;99.90;;;;;;5044136;28;20033;-83
2023/12/14 00:02:55;;;;;;;5.28;2.35;;;5.30;99.90;;;;;;5030120;28;20130;-83
2023/12/14 00:05:20;;;;;;;7.55;3.28;;;5.20;99.90;;;;;;5044699;28;20033;-83
2023/12/14 00:07:46;;;;;;;5.30;3.13;;;5.20;99.90;;;;;;5045239;28;20033;-83
2023/12/14 00:10:12;;;;;;;7.82;2.83;;;5.20;99.90;;;;;;5021216;28;20103;-83
2023/12/14 00:12:38;;;;;;;7.50;2.70;;;5.20;99.90;;;;;;5062380;28;20049;-83
2023/12/14 00:15:05;;;;;;;7.35;3.17;;;5.20;99.90;;;;;;5031495;28;20068;-83
2023/12/14 00:17:31;;;;;;;7.57;3.45;;;5.20;99.90;;;;;;5031688;28;20045;-83
2023/12/14 00:19:57;;;;;;;7.68;3.88;;;5.20;99.90;;;;;;5069324;28;20041;-83
2023/12/14 00:22:23;;;;;;;5.30;2.65;;;5.20;99.90;;;;;;5037144;28;20399;-83
2023/12/14 00:24:48;;;;;;;5.38;2.60;;;5.20;99.90;;;;;;5055812;28;20036;-83
2023/12/14 00:27:14;;;;;;;6.85;2.85;;;5.10;99.90;;;;;;5049517;28;20091;-83
2023/12/14 00:29:40;;;;;;;7.40;2.75;;;5.20;99.90;;;;;;5032160;28;20037;-83
2023/12/14 00:32:06;;;;;;;5.45;3.05;;;5.10;99.90;;;;;;5042347;28;20037;-83
2023/12/14 00:34:32;;;;;;;5.72;3.38;;;5.10;99.90;;;;;;5024541;28;20419;-83
2023/12/14 00:36:57;;;;;;;5.22;2.22;;;5.10;99.90;;;;;;5046125;28;20029;-83
2023/12/14 00:39:23;;;;;;;3.33;1.98;;;5.10;99.90;;;;;;5046696;28;20033;-83
2023/12/14 00:41:49;;;;;;;5.82;2.60;;;5.10;99.90;;;;;;5018772;28;20041;-83
2023/12/14 00:44:15;;;;;;;8.65;2.03;;;5.10;99.90;;;;;;5030501;28;20083;-83
2023/12/14 00:46:41;;;;;;;5.43;2.10;;;5.10;99.90;;;;;;5044242;28;20048;-83
2023/12/14 00:49:07;;;;;;;4.43;3.10;;;5.00;99.90;;;;;;5039786;28;20045;-83
2023/12/14 00:51:33;;;;;;;4.55;2.67;;;5.10;99.90;;;;;;5040284;28;20049;-83
2023/12/14 00:53:59;;;;;;;3.53;2.58;;;5.10;99.90;;;;;;5063403;28;20167;-83
2023/12/14 00:56:24;;;;;;;5.07;2.90;;;5.00;99.90;;;;;;5039431;28;20049;-83
2023/12/14 00:58:50;;;;;;;4.72;1.90;;;5.00;99.90;;;;;;5031019;28;20037;-83
2023/12/14 01:01:16;;;;;;;7.75;2.38;;;5.00;99.90;;;;;;5048786;28;20060;-83
2023/12/14 01:03:42;;;;;;;4.57;2.53;;;5.00;99.90;;;;;;5048293;28;20041;-83
2023/12/14 01:06:07;;;;;;;6.07;1.75;;;5.00;99.90;;;;;;5047792;28;20037;-83
2023/12/14 01:08:33;;;;;;;4.93;2.17;;;5.00;99.90;;;;;;5031305;28;20041;-83
2023/12/14 01:10:59;;;;;;;6.28;3.03;;;5.00;99.90;;;;;;5027089;28;20041;-83
2023/12/14 01:13:25;;;;;;;4.55;2.35;;;5.00;99.90;;;;;;5034985;28;20059;-83
2023/12/14 01:15:50;;;;;;;3.70;2.03;;;5.00;99.90;;;;;;5047039;28;20372;-83
2023/12/14 01:18:17;;;;;;;4.78;2.20;;;5.00;99.90;;;;;;5050724;28;20486;-83
2023/12/14 01:20:43;;;;;;;5.05;2.45;;;4.90;99.90;;;;;;5034151;28;20037;-83
2023/12/14 01:23:11;;;;;;;3.50;2.22;;;4.90;99.90;;;;;;5034348;28;20661;-83
2023/12/14 01:25:37;;;;;;;5.10;2.72;;;4.90;99.90;;;;;;5030205;28;20079;-83
2023/12/14 01:28:03;;;;;;;4.03;1.65;;;4.90;99.90;;;;;;5050443;28;20061;-83
2023/12/14 01:30:28;;;;;;;6.38;2.33;;;4.90;99.90;;;;;;5050954;28;20041;-83
2023/12/14 01:32:54;;;;;;;5.32;2.58;;;4.90;99.90;;;;;;5032361;28;20039;-83
2023/12/14 01:35:20;;;;;;;4.70;2.53;;;4.90;99.90;;;;;;5050018;28;20037;-83
2023/12/14 01:37:46;;;;;;;4.43;2.25;;;4.90;99.90;;;;;;5047007;28;20040;-83
2023/12/14 01:40:12;;;;;;;6.05;1.98;;;4.90;99.90;;;;;;5034537;28;20041;-83
2023/12/14 01:42:37;;;;;;;4.32;2.00;;;4.90;99.90;;;;;;5047034;28;20033;-83
2023/12/14 01:45:05;;;;;;;4.28;2.25;;;4.90;99.90;;;;;;5046934;28;20102;-83
2023/12/14 01:47:30;;;;;;;4.45;2.95;;;4.90;99.90;;;;;;5050393;28;20550;-83
2023/12/14 01:49:56;;;;;;;4.72;2.45;;;4.80;99.90;;;;;;5050366;28;20116;-83
2023/12/14 01:52:22;;;;;;;4.40;2.45;;;4.80;99.90;;;;;;5046381;28;20075;-83
2023/12/14 01:54:48;;;;;;;4.88;2.53;;;4.80;99.90;;;;;;5046732;28;20108;-83
2023/12/14 01:57:13;;;;;;;7.90;2.50;;;4.80;99.90;;;;;;5057423;28;20074;-83
2023/12/14 01:59:39;;;;;;;3.60;1.77;;;4.80;99.90;;;;;;5065407;28;20044;-83
2023/12/14 02:02:05;;;;;;;4.68;2.92;;;4.80;99.90;;;;;;5045692;28;20052;-83
2023/12/14 02:04:31;;;;;;;2.35;1.58;;;4.80;99.90;;;;;;5042144;28;20029;-83
2023/12/14 02:06:57;;;;;;;4.57;1.77;;;4.80;99.90;;;;;;5049508;28;20486;-83
2023/12/14 02:09:23;;;;;;;6.65;2.47;;;4.80;99.90;;;;;;5050088;28;20048;-83
2023/12/14 02:11:48;;;;;;;4.88;2.63;;;4.80;99.90;;;;;;5065794;28;20044;-83
2023/12/14 02:14:14;;;;;;;4.13;2.03;;;4.70;99.90;;;;;;5045142;28;20032;-83
2023/12/14 02:16:40;;;;;;;4.82;2.35;;;4.80;99.90;;;;;;5057880;28;20099;-83
2023/12/14 02:19:06;;;;;;;2.58;1.90;;;4.70;99.90;;;;;;5052111;28;20047;-83
2023/12/14 02:21:32;;;;;;;2.75;1.58;;;4.70;99.90;;;;;;5037881;28;20095;-83
2023/12/14 02:23:58;;;;;;;4.97;2.17;;;4.70;99.90;;;;;;5055853;28;20033;-83
2023/12/14 02:26:23;;;;;;;4.47;2.28;;;4.70;99.90;;;;;;5068373;28;20457;-83
2023/12/14 02:28:49;;;;;;;6.80;2.55;;;4.70;99.90;;;;;;5041235;28;20083;-83
2023/12/14 02:31:15;;;;;;;5.22;1.90;;;4.70;99.90;;;;;;5048970;28;20052;-83
2023/12/14 02:33:41;;;;;;;3.53;1.67;;;4.70;99.90;;;;;;5047370;28;20036;-83
2023/12/14 02:36:07;;;;;;;3.50;2.17;;;4.70;99.90;;;;;;5047197;28;20047;-83
2023/12/14 02:38:33;;;;;;;6.68;2.05;;;4.70;99.90;;;;;;5064438;28;20045;-83
2023/12/14 02:40:59;;;;;;;4.22;2.40;;;4.70;99.90;;;;;;5061306;28;20044;-83
2023/12/14 02:43:24;;;;;;;4.95;2.38;;;4.80;99.90;;;;;;5044444;28;20032;-83
2023/12/14 02:45:50;;;;;;;8.68;2.95;;;4.70;99.90;;;;;;5046498;28;20072;-83
2023/12/14 02:48:16;;;;;;;5.32;2.58;;;4.70;99.90;;;;;;5045209;28;20036;-83
2023/12/14 02:50:42;;;;;;;6.25;2.58;;;4.70;99.90;;;;;;5048509;28;20473;-83
2023/12/14 02:53:07;;;;;;;4.40;2.03;;;4.70;99.90;;;;;;5039062;28;20519;-83
2023/12/14 02:55:33;;;;;;;4.80;2.72;;;4.70;99.90;;;;;;5067647;28;20045;-83
2023/12/14 02:57:59;;;;;;;3.53;2.13;;;4.70;99.90;;;;;;5032278;28;20049;-83
2023/12/14 03:00:25;;;;;;;4.65;2.15;;;4.70;99.90;;;;;;5033346;28;20068;-83
2023/12/14 03:02:51;;;;;;;3.53;1.73;;;4.70;99.90;;;;;;5050020;28;20497;-83
2023/12/14 03:05:16;;;;;;;5.53;2.28;;;4.70;99.90;;;;;;5049350;28;20044;-83
2023/12/14 03:07:42;;;;;;;3.88;2.50;;;4.70;99.90;;;;;;5045329;28;20124;-83
2023/12/14 03:10:08;;;;;;;3.33;2.00;;;4.70;99.90;;;;;;5031245;28;20103;-83
2023/12/14 03:12:34;;;;;;;5.07;2.15;;;4.70;99.90;;;;;;5049037;28;20044;-83
2023/12/14 03:15:00;;;;;;;4.97;1.90;;;4.70;99.90;;;;;;5031412;28;20099;-83
2023/12/14 03:17:26;;;;;;;2.65;1.55;;;4.70;99.90;;;;;;5049297;28;20147;-83
2023/12/14 03:19:51;;;;;;;5.20;2.20;;;4.70;99.90;;;;;;5063627;28;20045;-83
2023/12/14 03:22:17;;;;;;;4.50;2.25;;;4.70;99.90;;;;;;5030523;28;20033;-83
2023/12/14 03:24:43;;;;;;;4.28;1.80;;;4.70;99.90;;;;;;5033057;28;20041;-83
2023/12/14 03:27:09;;;;;;;3.83;2.38;;;4.70;99.90;;;;;;5049890;28;20035;-83
2023/12/14 03:29:35;;;;;;;5.50;1.67;;;4.70;99.90;;;;;;5048038;28;20521;-83
2023/12/14 03:32:01;;;;;;;4.72;2.13;;;4.70;99.90;;;;;;5029020;28;20384;-83
2023/12/14 03:34:27;;;;;;;4.47;2.15;;;4.70;99.90;;;;;;5044917;28;20554;-83
2023/12/14 03:36:53;;;;;;;5.82;1.98;;;4.70;99.90;;;;;;5031223;28;20134;-83
2023/12/14 03:39:18;;;;;;;4.43;2.05;;;4.70;99.90;;;;;;5028733;28;20043;-83
2023/12/14 03:41:44;;;;;;;7.03;2.33;;;4.70;99.90;;;;;;5065879;28;20037;-83
2023/12/14 03:44:10;;;;;;;4.70;2.42;;;4.70;99.90;;;;;;5041723;28;20135;-83
2023/12/14 03:46:36;;;;;;;4.03;2.10;;;4.70;99.90;;;;;;5048775;28;20029;-83
2023/12/14 03:49:03;;;;;;;5.18;2.45;;;4.70;99.90;;;;;;5030257;28;20056;-83
2023/12/14 03:51:29;;;;;;;8.10;2.92;;;4.70;99.90;;;;;;5027893;28;20030;-83
2023/12/14 03:53:55;;;;;;;4.40;1.77;;;4.70;99.90;;;;;;5027936;28;20052;-83
2023/12/14 03:56:22;;;;;;;5.43;2.42;;;4.70;99.90;;;;;;5034061;28;20356;-83
2023/12/14 03:58:48;;;;;;;9.48;2.85;;;4.70;99.90;;;;;;5041458;28;20037;-83
2023/12/14 04:01:20;;;;;;;6.28;2.30;;;4.70;99.90;;;;;;5067905;28;20106;-83
2023/12/14 04:03:47;;;;;;;7.68;3.13;;;4.70;99.90;;;;;;5051557;28;20090;-83
2023/12/14 04:06:13;;;;;;;6.40;2.72;;;4.70;99.90;;;;;;5055520;28;20116;-83
2023/12/14 04:08:40;;;;;;;6.03;2.50;;;4.70;99.90;;;;;;5064037;28;20043;-83
2023/12/14 04:11:06;;;;;;;8.02;3.17;;;4.70;99.90;;;;;;5051253;28;20414;-83
2023/12/14 04:13:32;;;;;;;5.43;2.20;;;4.70;99.90;;;;;;5059758;28;20044;-83
2023/12/14 04:15:57;;;;;;;5.53;2.88;;;4.70;99.90;;;;;;5049221;28;20130;-83
2023/12/14 04:18:24;;;;;;;8.15;2.83;;;4.70;99.90;;;;;;5057695;28;20467;-83
2023/12/14 04:20:50;;;;;;;4.95;2.72;;;4.70;99.90;;;;;;5071720;28;20092;-83
2023/12/14 04:23:15;;;;;;;5.45;2.78;;;4.70;99.90;;;;;;5056017;28;20126;-83
2023/12/14 04:25:41;;;;;;;10.95;2.58;;;4.70;99.90;;;;;;5044120;28;20390;-83
2023/12/14 04:28:07;;;;;;;6.03;2.13;;;4.70;99.90;;;;;;5071674;28;20048;-83
2023/12/14 04:30:33;;;;;;;4.93;3.03;;;4.70;99.90;;;;;;5070631;28;20051;-83
2023/12/14 04:32:58;;;;;;;5.07;3.17;;;4.70;99.90;;;;;;5069455;28;20036;-83
2023/12/14 04:35:24;;;;;;;5.90;2.65;;;4.70;99.90;;;;;;5049545;28;20032;-83
2023/12/14 04:37:50;;;;;;;4.90;2.17;;;4.70;99.90;;;;;;5053186;28;20033;-83
2023/12/14 04:40:16;;;;;;;9.25;2.78;;;4.70;99.90;;;;;;5053992;28;20040;-82
2023/12/14 04:42:42;;;;;;;4.55;2.47;;;4.70;99.90;;;;;;5047123;28;20044;-83
2023/12/14 04:45:11;;;;;;;6.95;3.03;;;4.70;99.90;;;;;;5066949;28;20036;-83
2023/12/14 04:47:37;;;;;;;4.32;2.22;;;4.70;99.90;;;;;;5050055;28;20078;-83
2023/12/14 04:50:03;;;;;;;12.23;2.63;;;4.70;99.90;;;;;;5087444;28;20063;-83
2023/12/14 04:52:29;;;;;;;5.68;2.45;;;4.70;99.90;;;;;;5061323;28;20032;-83
2023/12/14 04:54:55;;;;;;;3.90;2.25;;;4.70;99.90;;;;;;5065971;28;20094;-84
2023/12/14 04:57:20;;;;;;;7.07;2.80;;;4.70;99.90;;;;;;5042999;28;20055;-84
2023/12/14 04:59:46;;;;;;;5.00;2.05;;;4.70;99.90;;;;;;5044784;28;20122;-84
2023/12/14 05:02:12;;;;;;;4.10;2.25;;;4.70;99.90;;;;;;5051457;28;20067;-84
2023/12/14 05:04:38;;;;;;;7.95;2.70;;;4.70;99.90;;;;;;5046022;28;20037;-83
2023/12/14 05:07:04;;;;;;;9.35;4.18;;;4.70;99.90;;;;;;5074866;28;20527;-84
2023/12/14 05:09:30;;;;;;;4.28;1.63;;;4.70;99.90;;;;;;5044237;28;20115;-84
2023/12/14 05:11:55;;;;;;;4.63;2.13;;;4.70;99.90;;;;;;5064575;28;20119;-83
2023/12/14 05:14:21;;;;;;;7.47;2.75;;;4.70;99.90;;;;;;5064902;28;20432;-83
2023/12/14 05:16:47;;;;;;;7.57;2.30;;;4.70;99.90;;;;;;5052757;28;20040;-83
2023/12/14 05:19:13;;;;;;;5.65;2.10;;;4.70;99.90;;;;;;5053654;28;20532;-83
2023/12/14 05:21:39;;;;;;;11.45;2.22;;;4.70;99.90;;;;;;5049488;28;20052;-84
2023/12/14 05:24:05;;;;;;;6.57;2.65;;;4.70;99.90;;;;;;5049258;28;20075;-84
2023/12/14 05:26:31;;;;;;;8.80;3.03;;;4.70;99.90;;;;;;5053418;28;20086;-83
2023/12/14 05:28:57;;;;;;;7.05;2.22;;;4.70;99.90;;;;;;5050525;28;20505;-83
2023/12/14 05:31:22;;;;;;;5.28;3.30;;;4.70;99.90;;;;;;5037937;28;20082;-82
2023/12/14 05:33:48;;;;;;;7.50;2.65;;;4.70;99.90;;;;;;5049543;28;20032;-83
2023/12/14 05:36:14;;;;;;;7.10;2.80;;;4.70;99.90;;;;;;5047610;28;20043;-83
2023/12/14 05:38:40;;;;;;;6.75;2.63;;;4.70;99.90;;;;;;5068776;28;20040;-83
2023/12/14 05:41:06;;;;;;;5.45;2.40;;;4.80;99.90;;;;;;5055826;28;20039;-83
2023/12/14 05:43:32;;;;;;;4.22;1.83;;;4.70;99.90;;;;;;5066903;28;20514;-83
2023/12/14 05:45:58;;;;;;;8.15;2.75;;;4.80;99.90;;;;;;5067793;28;20102;-82
2023/12/14 05:48:26;;;;;;;5.18;2.60;;;4.70;99.90;;;;;;5063325;28;20031;-83
2023/12/14 05:50:52;;;;;;;6.20;2.90;;;4.70;99.90;;;;;;5070132;28;20043;-83
2023/12/14 05:53:18;;;;;;;7.82;2.80;;;4.80;99.90;;;;;;5048796;28;20066;-83
2023/12/14 05:55:44;;;;;;;5.90;2.38;;;4.70;99.90;;;;;;5044981;28;20043;-83
2023/12/14 05:58:10;;;;;;;6.15;2.38;;;4.80;99.90;;;;;;5070149;28;20048;-83
2023/12/14 06:00:36;;;;;;;6.30;2.40;;;4.80;99.90;;;;;;5045823;28;20094;-83
2023/12/14 06:03:02;;;;;;;5.68;2.08;;;4.70;99.90;;;;;;5073328;28;20113;-83
2023/12/14 06:05:28;;;;;;;10.50;3.03;;;4.70;99.90;;;;;;5055655;28;20503;-83
2023/12/14 06:07:54;;;;;;;10.48;3.85;;;4.80;99.90;;;;;;5074094;28;20129;-83
2023/12/14 06:10:21;;;;;;;5.50;2.30;;;4.80;99.90;;;;;;5047865;28;20123;-84
2023/12/14 06:12:47;;;;;;;5.78;2.28;;;4.70;99.90;;;;;;5055462;28;20056;-83
2023/12/14 06:15:13;;;;;;;7.78;2.15;;;4.80;99.90;;;;;;5074160;28;20055;-84
2023/12/14 06:17:40;;;;;;;4.82;2.63;;;4.70;99.90;;;;;;5054884;28;20502;-83
2023/12/14 06:20:10;;;;;;;8.32;3.05;;;4.70;99.90;;;;;;5053693;28;20051;-84
2023/12/14 06:22:39;;;;;;;6.35;2.53;;;4.70;99.90;;;;;;5052913;28;20557;-84
2023/12/14 06:25:05;;;;;;;3.67;1.97;;;4.70;99.90;;;;;;5070428;28;20032;-84
2023/12/14 06:27:31;;;;;;;4.13;2.25;;;4.70;99.90;;;;;;5070394;28;20783;-83
2023/12/14 06:29:57;;;;;;;7.22;2.60;;;4.70;99.90;;;;;;5055705;28;20036;-83
2023/12/14 06:32:23;;;;;;;5.32;2.13;;;4.70;99.90;;;;;;5053875;28;20074;-83
2023/12/14 06:34:48;;;;;;;5.10;3.38;;;4.70;99.90;;;;;;5057227;28;20055;-83
2023/12/14 06:37:14;;;;;;;7.28;2.45;;;4.70;99.90;;;;;;5066559;28;20036;-84
2023/12/14 06:39:43;;;;;;;3.47;2.10;;;4.70;99.90;;;;;;5061946;28;20569;-84
2023/12/14 06:42:09;;;;;;;11.77;3.08;;;4.70;99.90;;;;;;5058896;28;20098;-84
2023/12/14 06:44:35;;;;;;;9.45;3.15;;;4.70;99.90;;;;;;5055616;28;20047;-83
2023/12/14 06:47:01;;;;;;;5.53;2.47;;;4.70;99.90;;;;;;5052829;28;20038;-83
2023/12/14 06:49:26;;;;;;;6.20;2.28;;;4.70;99.90;;;;;;5071871;28;20067;-83
2023/12/14 06:51:52;;;;;;;6.30;2.72;;;4.70;99.90;;;;;;5065212;28;20040;-84
2023/12/14 06:54:19;;;;;;;6.10;2.67;;;4.70;99.90;;;;;;5054148;28;20043;-84
2023/12/14 06:56:44;;;;;;;9.05;2.67;;;4.70;99.90;;;;;;5050663;28;20476;-84
2023/12/14 06:59:10;;;;;;;8.77;2.63;;;4.70;99.90;;;;;;5060834;28;20052;-84
2023/12/14 07:01:36;;;;;;;6.13;2.58;;;4.70;99.90;;;;;;5069912;28;20044;-84
2023/12/14 07:04:05;;;;;;;6.47;2.90;;;4.70;99.90;;;;;;5059008;28;20032;-83
2023/12/14 07:06:30;;;;;;;3.90;2.22;;;4.70;99.90;;;;;;5053999;28;20028;-83
2023/12/14 07:08:56;;;;;;;5.90;2.35;;;4.70;99.90;;;;;;5061292;28;20089;-83
2023/12/14 07:11:22;;;;;;;8.82;2.58;;;4.80;99.90;;;;;;5051317;28;20071;-84
2023/12/14 07:13:48;;;;;;;8.27;2.90;;;4.70;99.90;;;;;;5068477;28;20413;-84
2023/12/14 07:16:14;;;;;;;6.70;3.00;;;4.70;99.90;;;;;;5045342;28;20032;-84
2023/12/14 07:18:44;;;;;;;6.57;2.55;;;4.70;99.90;;;;;;5095021;28;20040;-83
2023/12/14 07:21:10;;;;;;;8.68;3.65;;;4.70;99.90;;;;;;5043260;28;20616;-84
2023/12/14 07:23:37;;;;;;;5.50;2.25;;;4.70;99.90;;;;;;5060441;28;20185;-84
2023/12/14 07:26:03;;;;;;;6.30;2.80;;;4.70;99.90;;;;;;5053415;28;20434;-83
2023/12/14 07:28:29;;;;;;;7.35;2.67;;;4.70;99.90;;;;;;5059188;28;20032;-83
2023/12/14 07:30:55;;;;;;;7.07;2.95;;;4.70;99.90;;;;;;5054743;28;20047;-83
2023/12/14 07:33:21;;;;;;;8.10;2.92;;;4.70;99.90;;;;;;5055699;28;20037;-83
2023/12/14 07:35:46;;;;;;;8.93;3.25;;;4.70;99.90;;;;;;5055276;28;20044;-83
2023/12/14 07:38:13;;;;;;;8.38;2.80;;;4.70;99.90;;;;;;5050008;28;20032;-83
2023/12/14 07:40:40;;;;;;;8.48;3.13;;;4.70;99.90;;;;;;5085427;28;20032;-83
2023/12/14 07:43:06;;;;;;;6.28;3.15;;;4.70;99.90;;;;;;5072324;28;20064;-83
2023/12/14 07:45:32;;;;;;;5.38;3.13;;;4.70;99.90;;;;;;5051507;28;20066;-83
2023/12/14 07:47:58;;;;;;;4.78;2.38;;;4.70;99.90;;;;;;5071987;28;20039;-83
2023/12/14 07:50:24;;;;;;;4.88;2.53;;;4.70;99.90;;;;;;5083551;28;20055;-83
2023/12/14 07:52:49;;;;;;;12.23;3.10;;;4.70;99.90;;;;;;5051257;28;20461;-84
2023/12/14 07:55:15;;;;;;;6.00;2.65;;;4.80;99.90;;;;;;5052469;28;20035;-84
2023/12/14 07:57:41;;;;;;;4.93;2.55;;;4.80;99.90;;;;;;5075164;28;20502;-84
2023/12/14 08:00:10;;;;;;;6.88;2.20;;;4.80;99.90;;;;;;5047540;28;20041;-84
2023/12/14 08:02:37;;;;;;;6.80;3.05;;;4.80;99.90;;;;;;5071928;28;20095;-84
2023/12/14 08:05:03;;;;;;;5.93;2.83;;;4.80;99.90;;;;;;5047975;28;20032;-84
2023/12/14 08:07:29;;;;;;;4.80;2.13;;;4.90;99.90;;;;;;5063602;28;20029;-84
2023/12/14 08:09:56;;;;;;;8.52;2.75;;;4.90;99.90;;;;;;5050146;28;20051;-84
2023/12/14 08:12:22;;;;;;;5.95;2.90;;;4.80;99.90;;;;;;5071687;28;20036;-84
2023/12/14 08:14:48;;;;;;;4.93;2.85;;;4.90;99.90;;;;;;5067468;28;20029;-84
2023/12/14 08:17:14;;;;;;;7.03;3.45;;;4.90;99.90;;;;;;5068134;28;20519;-84
2023/12/14 08:19:43;;;;;;;15.13;3.15;;;4.90;99.90;;;;;;5071570;28;20040;-84
2023/12/14 08:22:11;;;;;;;8.07;2.92;;;4.90;99.90;;;;;;5068790;28;20113;-84
2023/12/14 08:24:41;;;;;;;7.82;3.58;;;4.90;99.90;;;;;;5075762;28;20043;-84
2023/12/14 08:27:07;;;;;;;12.13;3.28;;;4.90;99.90;;;;;;5052570;28;20051;-84
2023/12/14 08:29:32;;;;;;;6.85;2.70;;;4.90;99.90;;;;;;5047666;28;20037;-83
2023/12/14 08:31:59;;;;;;;5.88;2.63;;;4.90;99.90;;;;;;5075209;28;20873;-84
2023/12/14 08:34:28;;;;;;;5.40;2.53;;;4.90;99.90;;;;;;5047381;28;20044;-84
2023/12/14 08:36:54;;;;;;;7.83;3.17;;;5.00;99.90;;;;;;5052890;28;20486;-84
2023/12/14 08:39:20;;;;;;;10.05;4.15;;;5.00;99.90;;;;;;5061682;28;20104;-83
2023/12/14 08:41:47;;;;;;;5.53;2.95;;;5.10;99.90;;;;;;5070398;28;20044;-84
2023/12/14 08:44:13;;;;;;;6.85;3.13;;;5.10;99.90;;;;;;5071531;28;20444;-84
2023/12/14 08:46:44;;;;;;;6.43;2.80;;;5.10;99.90;;;;;;5074996;28;20036;-84
2023/12/14 08:49:11;;;;;;;10.73;3.28;;;5.20;99.90;;;;;;5054585;28;20540;-84
2023/12/14 08:51:38;;;;;;;6.35;2.85;;;5.20;99.90;;;;;;5068317;28;20078;-84
2023/12/14 08:54:04;;;;;;;8.02;3.38;;;5.20;99.90;;;;;;5057007;28;20682;-83
2023/12/14 08:56:30;;;;;;;7.38;2.72;;;5.20;99.90;;;;;;5052312;28;20051;-83
2023/12/14 08:58:57;;;;;;;5.03;2.13;;;5.20;99.90;;;;;;5059622;28;20053;-84
2023/12/14 09:01:23;;;;;;;6.13;3.15;;;5.20;99.90;;;;;;5068255;28;20037;-84
2023/12/14 09:03:49;;;;;;;8.48;3.22;;;5.30;99.90;;;;;;5049291;28;20033;-84
2023/12/14 09:06:18;;;;;;;6.22;2.80;;;5.30;99.90;;;;;;5066581;28;20379;-84
2023/12/14 09:08:45;;;;;;;5.60;2.70;;;5.30;99.90;;;;;;5047754;28;20089;-84
2023/12/14 09:11:11;;;;;;;9.32;3.47;;;5.40;99.90;;;;;;5073427;28;20115;-89
2023/12/14 09:13:37;;;;;;;10.52;3.42;;;5.40;99.90;;;;;;5052059;28;20040;-87
2023/12/14 09:16:03;;;;;;;7.43;2.80;;;5.50;99.90;;;;;;5070217;28;20047;-83
2023/12/14 09:18:30;;;;;;;6.85;2.88;;;5.50;99.90;;;;;;5046795;28;20041;-83
2023/12/14 09:20:56;;;;;;;4.97;2.38;;;5.50;99.90;;;;;;5072666;28;20142;-83
2023/12/14 09:23:22;;;;;;;8.45;3.10;;;5.50;99.90;;;;;;5054004;28;20028;-83
2023/12/14 09:25:47;;;;;;;5.38;2.75;;;5.60;99.90;;;;;;5066492;28;20044;-83
2023/12/14 09:28:13;;;;;;;6.25;2.88;;;5.90;99.90;;;;;;5055782;28;20036;-83
2023/12/14 09:30:39;;;;;;;8.15;2.95;;;6.20;99.90;;;;;;5058231;28;20035;-84
2023/12/14 09:33:08;;;;;;;6.72;3.22;;;6.30;99.90;;;;;;5050478;28;20809;-84
2023/12/14 09:35:36;;;;;;;6.15;3.13;;;6.70;99.90;;;;;;5069814;28;20035;-83
2023/12/14 09:38:03;;;;;;;6.75;2.97;;;7.00;99.90;;;;;;5047244;28;20032;-83
2023/12/14 09:40:29;;;;;;;11.00;4.32;;;7.00;99.90;;;;;;5059589;28;20041;-84
2023/12/14 09:42:56;;;;;;;7.03;3.33;;;7.00;99.90;;;;;;5053270;28;20036;-85
2023/12/14 09:45:27;;;;;;;7.75;2.85;;;7.00;99.90;;;;;;5045447;28;20688;-85
2023/12/14 09:47:53;;;;;;;9.40;2.75;;;6.90;99.90;;;;;;5072259;28;20508;-85
2023/12/14 09:50:22;;;;;;;5.88;3.03;;;6.80;99.90;;;;;;5039658;28;20033;-84
2023/12/14 09:52:49;;;;;;;7.03;2.78;;;6.80;99.90;;;;;;5041796;28;20032;-84
2023/12/14 09:55:16;;;;;;;9.43;2.70;;;6.70;99.90;;;;;;5073813;28;20037;-88
2023/12/14 09:57:41;;;;;;;11.32;3.03;;;6.70;99.90;;;;;;5041268;28;20502;-85
2023/12/14 10:00:10;;;;;;;9.02;3.40;;;6.60;99.90;;;;;;5069171;28;20047;-87
2023/12/14 10:02:37;;;;;;;9.25;2.30;;;6.60;99.90;;;;;;5069489;28;20506;-88
2023/12/14 10:05:05;;;;;;;6.75;2.78;;;6.60;99.90;;;;;;5061608;28;20032;-83
2023/12/14 10:07:31;;;;;;;4.40;2.67;;;6.60;99.90;;;;;;5058841;28;20102;-84
2023/12/14 10:10:13;;;;;;;5.85;2.47;;;6.60;99.90;;;;;;5061848;28;20560;-84
2023/12/14 10:12:55;;;;;;;5.05;2.53;;;6.60;99.90;;;;;;5067048;28;20093;-84
2023/12/14 10:15:23;;;;;;;11.32;3.53;;;6.60;99.90;;;;;;5040392;28;20036;-84
2023/12/14 10:17:54;;;;;;;6.65;2.60;;;6.70;99.90;;;;;;5069297;28;20043;-83
2023/12/14 10:20:23;;;;;;;10.48;3.83;;;6.60;99.90;;;;;;5070169;28;20047;-83
2023/12/14 10:22:50;;;;;;;6.43;2.30;;;6.60;99.90;;;;;;5048040;28;20032;-84
2023/12/14 10:25:18;;;;;;;7.95;2.30;;;6.60;99.90;;;;;;5069577;28;20068;-84
2023/12/14 10:27:47;;;;;;;5.65;2.13;;;6.60;99.90;;;;;;5063505;28;20040;-84
2023/12/14 10:30:15;;;;;;;6.88;3.22;;;6.70;99.90;;;;;;5076597;28;20123;-84
2023/12/14 10:32:41;;;;;;;9.45;2.88;;;6.70;99.90;;;;;;5068090;28;20496;-84
2023/12/14 10:35:12;;;;;;;5.63;2.90;;;6.70;99.90;;;;;;5086443;28;20032;-84
2023/12/14 10:37:40;;;;;;;4.18;1.95;;;6.80;99.90;;;;;;5065589;28;20079;-84
2023/12/14 10:40:10;;;;;;;5.80;2.38;;;6.80;99.90;;;;;;5066553;28;20382;-84
2023/12/14 10:42:38;;;;;;;7.63;2.67;;;6.90;99.90;;;;;;5041430;28;20162;-84
2023/12/14 10:45:06;;;;;;;3.15;1.73;;;6.90;99.90;;;;;;5067427;28;20040;-84
2023/12/14 10:47:33;;;;;;;3.47;1.83;;;6.90;99.90;;;;;;5044303;28;20049;-84
2023/12/14 10:50:00;;;;;;;3.72;1.90;;;6.90;99.90;;;;;;5054460;28;20070;-84
2023/12/14 10:52:28;;;;;;;4.38;2.08;;;7.00;99.90;;;;;;5044527;28;20040;-84
2023/12/14 10:55:01;;;;;;;7.93;2.38;;;7.00;99.90;;;;;;5049346;28;20463;-84
2023/12/14 10:57:28;;;;;;;6.15;2.97;;;7.10;99.90;;;;;;5058424;28;20124;-84
2023/12/14 11:00:01;;;;;;;5.85;2.55;;;7.30;99.90;;;;;;5046802;28;20035;-84
2023/12/14 11:02:27;;;;;;;7.78;2.80;;;7.60;99.90;;;;;;5074242;28;20028;-84
2023/12/14 11:04:58;;;;;;;6.18;2.60;;;8.20;99.90;;;;;;5061174;28;20038;-84
2023/12/14 11:07:43;;;;;;;8.25;3.15;;;8.70;99.90;;;;;;5057271;28;20036;-84
2023/12/14 11:10:09;;;;;;;7.18;2.55;;;8.90;99.90;;;;;;5051855;28;20432;-84
2023/12/14 11:12:35;;;;;;;6.38;3.05;;;8.90;99.90;;;;;;5067318;28;20063;-84
2023/12/14 11:15:00;;;;;;;5.93;3.42;;;8.90;99.90;;;;;;5054267;28;20082;-84
2023/12/14 11:17:29;;;;;;;10.15;3.20;;;8.60;99.90;;;;;;5071142;28;20093;-83
2023/12/14 11:19:55;;;;;;;5.93;2.67;;;8.40;99.90;;;;;;5085799;28;20071;-84
2023/12/14 11:22:27;;;;;;;4.82;2.67;;;8.20;99.90;;;;;;5047714;28;20072;-84
2023/12/14 11:24:54;;;;;;;6.68;3.15;;;8.10;99.90;;;;;;5052368;28;20032;-84
2023/12/14 11:27:31;;;;;;;4.13;2.55;;;8.00;99.90;;;;;;5053071;28;20032;-84
2023/12/14 11:29:58;;;;;;;5.22;2.80;;;7.80;99.90;;;;;;5049021;28;20032;-84
2023/12/14 11:32:25;;;;;;;6.65;2.60;;;7.60;99.90;;;;;;5053021;28;20402;-83
2023/12/14 11:34:51;;;;;;;4.70;2.55;;;7.60;99.90;;;;;;5052817;28;20040;-83
2023/12/14 11:37:17;;;;;;;4.63;2.70;;;7.60;99.90;;;;;;5073453;28;20714;-83
2023/12/14 11:39:43;;;;;;;9.65;2.60;;;7.50;99.90;;;;;;5069678;28;20175;-82
2023/12/14 11:42:10;;;;;;;6.75;3.13;;;7.50;99.90;;;;;;5055239;28;20044;-84
2023/12/14 11:44:37;;;;;;;6.80;2.97;;;7.60;99.90;;;;;;5072581;28;20043;-84
2023/12/14 11:47:03;;;;;;;10.35;3.17;;;7.60;99.90;;;;;;5068554;28;20028;-84
2023/12/14 11:49:30;;;;;;;8.68;3.13;;;7.60;99.90;;;;;;5048404;28;20036;-84
2023/12/14 11:51:56;;;;;;;7.70;3.33;;;7.60;99.90;;;;;;5071286;28;20058;-84
2023/12/14 11:54:22;;;;;;;7.82;3.20;;;7.60;99.90;;;;;;5043558;28;20068;-84
2023/12/14 11:56:49;;;;;;;8.73;3.50;;;7.70;99.90;;;;;;5050743;28;20087;-84
2023/12/14 11:59:19;;;;;;;6.93;3.10;;;7.70;99.90;;;;;;5064915;28;20162;-84
2023/12/14 12:01:56;;;;;;;6.20;3.25;;;7.70;99.90;;;;;;5045566;28;20040;-84
2023/12/14 12:04:23;;;;;;;7.68;3.13;;;7.70;99.90;;;;;;5051669;28;20037;-84
2023/12/14 12:06:49;;;;;;;6.65;2.83;;;7.60;99.90;;;;;;5051441;28;20119;-84
2023/12/14 12:09:36;;;;;;;7.53;2.88;;;7.60;99.90;;;;;;5064754;28;20123;-84
2023/12/14 12:12:03;;;;;;;5.38;2.80;;;7.60;99.90;;;;;;5056012;28;20043;-84
2023/12/14 12:14:28;;;;;;;5.75;2.55;;;7.60;99.90;;;;;;5054455;28;20043;-83
2023/12/14 12:16:55;;;;;;;7.25;2.58;;;7.60;99.90;;;;;;5053089;28;20044;-83
2023/12/14 12:19:20;;;;;;;8.60;3.33;;;7.50;99.90;;;;;;5069853;28;20040;-83
2023/12/14 12:21:46;;;;;;;9.95;3.33;;;7.30;99.90;;;;;;5075845;28;20032;-82
2023/12/14 12:24:12;;;;;;;9.32;4.70;;;7.30;99.90;;;;;;5079546;28;20046;-82
2023/12/14 12:26:38;;;;;;;12.88;3.97;;;7.20;99.90;;;;;;5076757;28;23645;-82
2023/12/14 12:29:05;;;;;;;9.02;3.20;;;7.20;99.90;;;;;;5054141;28;20601;-87
2023/12/14 12:31:33;;;;;;;6.03;3.10;;;7.10;99.90;;;;;;5073909;28;20094;-82
2023/12/14 12:33:59;;;;;;;8.50;4.18;;;7.00;99.90;;;;;;5057193;28;20452;-82
2023/12/14 12:36:24;;;;;;;11.40;5.30;;;7.00;99.90;;;;;;5076879;28;20032;-82
2023/12/14 12:38:51;;;;;;;7.70;4.00;;;6.90;99.90;;;;;;5057128;28;20075;-83
2023/12/14 12:41:17;;;;;;;6.30;3.22;;;6.90;99.90;;;;;;5074026;28;20405;-82
2023/12/14 12:43:43;;;;;;;8.32;2.90;;;6.80;99.90;;;;;;5058814;28;20039;-82
2023/12/14 12:46:09;;;;;;;8.25;3.60;;;6.80;99.90;;;;;;5072847;28;20454;-81
2023/12/14 12:48:36;;;;;;;8.88;3.53;;;6.70;99.90;;;;;;5054878;28;20044;-82
2023/12/14 12:51:02;;;;;;;7.78;2.70;;;6.70;99.90;;;;;;5070437;28;20161;-82